KWVL/WVL METAR and TAF weather

Enter ICAO airport designator
Station Type Date Time Source
KWVL METAR 2020/07/02 17:56 UTC NOAA

KWVL 021756Z AUTO 21006KT 6SM HZ CLR 28/21 A2969 RMK AO2 SLP076 T02830206 10289 20172 56008


Station Type Date Time Source
KWVL Decoded METAR 2020/07/02 17:56 UTC NOAA

Waterville, Waterville Robert LaFleur Airport, ME, United States (KWVL) 44-32N 069-41W
Jul 02, 2020 - 01:56 PM EDT / 2020.07.02 1756 UTC
Wind: from the SSW (210 degrees) at 7 MPH (6 KT):0
Visibility: 6 mile(s):0
Sky conditions: clear
Weather: haze
Temperature: 82.9 F (28.3 C)
Dew Point: 69.1 F (20.6 C)
Relative Humidity: 63%
Pressure (altimeter): 29.69 in. Hg (1005 hPa)
Pressure tendency: 0.02 inches (0.8 hPa) lower than three hours ago
ob: KWVL 021756Z AUTO 21006KT 6SM HZ CLR 28/21 A2969 RMK AO2 SLP076 T02830206 10289 20172 56008
cycle: 18

Station Type Date Time Source
KWVL TAF UTC NOAA

Error!

Example: see airport list